Time;durP1;ratioP1;P1;durP2;ratioP2;P2;SDS_P1;SDS_P2;PMS_P1;PMS_P2;Temp;Humidity;BMP_temperature;BMP_pressure;BME280_temperature;BME280_humidity;BME280_pressure;Samples;Min_cycle;Max_cycle;Signal;HPM_P1;HPM_P2
2023/05/17 00:01:48;;;;;;;12.57;3.33;;;11.20;99.90;;;;;;5092069;28;20176;-59
2023/05/17 00:04:14;;;;;;;10.97;2.90;;;11.20;99.90;;;;;;5092107;28;20172;-59
2023/05/17 00:06:40;;;;;;;8.70;3.00;;;;;;;;;;5090374;28;20180;-59
2023/05/17 00:09:06;;;;;;;9.27;3.13;;;11.20;99.90;;;;;;5091967;28;20168;-58
2023/05/17 00:11:32;;;;;;;7.17;3.03;;;11.00;99.90;;;;;;5082915;28;20168;-59
2023/05/17 00:13:57;;;;;;;12.13;3.73;;;11.10;99.90;;;;;;5071835;28;20176;-59
2023/05/17 00:16:23;;;;;;;7.93;2.90;;;11.00;99.90;;;;;;5077265;28;20658;-58
2023/05/17 00:18:48;;;;;;;12.00;3.63;;;10.80;99.90;;;;;;5090736;28;20184;-59
2023/05/17 00:21:14;;;;;;;7.90;3.13;;;10.90;99.90;;;;;;5073342;28;20214;-59
2023/05/17 00:23:39;;;;;;;10.03;2.90;;;10.60;99.90;;;;;;5090119;28;20254;-59
2023/05/17 00:26:05;;;;;;;8.77;3.20;;;10.50;99.90;;;;;;5078173;28;20169;-59
2023/05/17 00:28:31;;;;;;;10.67;3.27;;;10.50;99.90;;;;;;5076564;28;20191;-58
2023/05/17 00:30:56;;;;;;;9.50;3.03;;;10.40;99.90;;;;;;5084618;28;20172;-58
2023/05/17 00:33:22;;;;;;;8.70;3.17;;;10.40;99.90;;;;;;5075975;28;20207;-58
2023/05/17 00:35:47;;;;;;;8.70;3.33;;;10.50;99.90;;;;;;5091256;28;20702;-59
2023/05/17 00:38:13;;;;;;;7.63;3.23;;;10.70;99.90;;;;;;5091383;28;20186;-60
2023/05/17 00:40:39;;;;;;;11.27;3.53;;;10.70;99.90;;;;;;5091456;28;20172;-60
2023/05/17 00:43:04;;;;;;;10.63;3.33;;;10.70;99.90;;;;;;5091499;28;20176;-59
2023/05/17 00:45:30;;;;;;;8.90;3.70;;;10.70;99.90;;;;;;5091410;28;20555;-59
2023/05/17 00:47:56;;;;;;;7.47;3.50;;;10.60;99.90;;;;;;5091233;28;20527;-59
2023/05/17 00:50:21;;;;;;;8.17;3.30;;;10.70;99.90;;;;;;5091243;28;20179;-59
2023/05/17 00:52:47;;;;;;;10.17;3.40;;;10.80;99.90;;;;;;5091205;28;20296;-60
2023/05/17 00:55:13;;;;;;;15.37;3.77;;;10.70;99.90;;;;;;5091385;28;20195;-58
2023/05/17 00:57:39;;;;;;;7.23;3.27;;;10.70;99.90;;;;;;5091285;28;20638;-58
2023/05/17 01:00:05;;;;;;;10.27;3.37;;;10.70;99.90;;;;;;5091056;28;20205;-58
2023/05/17 01:02:31;;;;;;;10.43;3.33;;;10.70;99.90;;;;;;5073516;28;20176;-58
2023/05/17 01:04:57;;;;;;;9.93;3.43;;;10.70;99.90;;;;;;5091243;28;20178;-58
2023/05/17 01:07:22;;;;;;;12.53;3.93;;;10.70;99.90;;;;;;5091285;28;20183;-58
2023/05/17 01:09:48;;;;;;;8.63;3.30;;;10.70;99.90;;;;;;5091210;28;20168;-58
2023/05/17 01:12:33;;;;;;;7.97;3.53;;;10.40;99.90;;;;;;5091002;28;20199;-58
2023/05/17 01:15:11;;;;;;;16.63;4.20;;;10.60;99.90;;;;;;5091293;28;20168;-58
2023/05/17 01:18:16;;;;;;;10.17;3.40;;;10.60;99.90;;;;;;5072962;28;20589;-59
2023/05/17 01:20:47;;;;;;;6.93;3.27;;;10.60;99.90;;;;;;5091107;28;20172;-58
2023/05/17 01:23:57;;;;;;;10.77;3.60;;;10.50;99.90;;;;;;5090960;28;20186;-59
2023/05/17 01:26:37;;;;;;;8.10;2.97;;;10.50;99.90;;;;;;5067696;28;20187;-59
2023/05/17 01:29:04;;;;;;;7.50;3.33;;;10.40;99.90;;;;;;5091016;28;20179;-59
2023/05/17 01:31:31;;;;;;;13.53;3.57;;;10.30;99.90;;;;;;5094515;28;20175;-59
2023/05/17 01:33:57;;;;;;;8.70;3.10;;;10.20;99.90;;;;;;5093397;28;20164;-59
2023/05/17 01:36:25;;;;;;;9.83;3.90;;;10.00;99.90;;;;;;5079349;28;20212;-58
2023/05/17 01:38:51;;;;;;;13.47;4.17;;;;;;;;;;5094170;28;20211;-58
2023/05/17 01:41:32;;;;;;;11.50;3.50;;;9.90;99.90;;;;;;5083367;28;20225;-58
2023/05/17 01:44:30;;;;;;;9.07;3.80;;;9.80;99.90;;;;;;5094801;28;20176;-58
2023/05/17 01:47:34;;;;;;;12.20;3.67;;;9.70;99.90;;;;;;5056396;28;20723;-58
2023/05/17 01:50:02;;;;;;;11.20;4.00;;;9.80;99.90;;;;;;5074464;28;20171;-59
2023/05/17 01:52:43;;;;;;;10.20;3.97;;;9.80;99.90;;;;;;5074225;28;20216;-58
2023/05/17 01:55:16;;;;;;;13.43;4.13;;;9.90;99.90;;;;;;5074282;28;20660;-58
2023/05/17 01:57:43;;;;;;;11.30;4.00;;;9.80;99.90;;;;;;5083592;28;20170;-59
2023/05/17 02:00:11;;;;;;;16.10;4.03;;;9.90;99.90;;;;;;5094933;28;20167;-58
2023/05/17 02:02:36;;;;;;;8.90;3.57;;;9.90;99.90;;;;;;5094437;28;20288;-59
2023/05/17 02:05:02;;;;;;;11.30;3.80;;;10.30;99.90;;;;;;5094411;28;20160;-59
2023/05/17 02:07:28;;;;;;;8.97;3.60;;;10.00;99.90;;;;;;5094369;28;20229;-59
2023/05/17 02:09:54;;;;;;;10.37;3.50;;;9.90;99.90;;;;;;5094339;28;20168;-59
2023/05/17 02:12:19;;;;;;;9.37;3.83;;;9.90;99.90;;;;;;5094283;28;20706;-59
2023/05/17 02:14:45;;;;;;;12.50;3.23;;;9.90;99.90;;;;;;5094154;28;20258;-60
2023/05/17 02:17:12;;;;;;;9.67;3.17;;;9.80;99.90;;;;;;5094254;28;20531;-59
2023/05/17 02:19:37;;;;;;;11.60;3.83;;;9.90;99.90;;;;;;5094352;28;20204;-59
2023/05/17 02:22:03;;;;;;;12.03;3.77;;;9.80;99.90;;;;;;5094178;28;20546;-59
2023/05/17 02:24:28;;;;;;;9.73;3.60;;;9.80;99.90;;;;;;5094037;28;20176;-59
2023/05/17 02:26:54;;;;;;;9.50;3.40;;;;;;;;;;5094009;28;20168;-59
2023/05/17 02:29:20;;;;;;;11.90;3.43;;;9.80;99.90;;;;;;5094032;28;20613;-59
2023/05/17 02:31:46;;;;;;;7.93;3.63;;;9.80;99.90;;;;;;5093737;28;20276;-59
2023/05/17 02:34:12;;;;;;;7.60;3.23;;;;;;;;;;5093868;28;20578;-59
2023/05/17 02:36:39;;;;;;;8.13;3.33;;;9.40;99.90;;;;;;5092790;28;20303;-59
2023/05/17 02:39:04;;;;;;;8.77;3.90;;;9.50;99.90;;;;;;5092542;28;20214;-59
2023/05/17 02:41:30;;;;;;;8.93;3.13;;;9.40;99.90;;;;;;5092114;28;20199;-59
2023/05/17 02:43:55;;;;;;;8.13;3.43;;;9.30;99.90;;;;;;5092051;28;20587;-59
2023/05/17 02:46:21;;;;;;;11.27;3.67;;;9.10;99.90;;;;;;5077226;28;20181;-59
2023/05/17 02:48:47;;;;;;;8.37;3.67;;;;;;;;;;5090602;28;20176;-59
2023/05/17 02:51:13;;;;;;;8.07;3.17;;;8.90;99.90;;;;;;5087041;28;20191;-59
2023/05/17 02:53:38;;;;;;;8.60;3.33;;;8.90;99.90;;;;;;5072056;28;20211;-59
2023/05/17 02:56:04;;;;;;;13.77;3.30;;;8.90;99.90;;;;;;5072079;28;20290;-59
2023/05/17 02:58:30;;;;;;;9.67;3.50;;;8.90;99.90;;;;;;5088303;28;20233;-59
2023/05/17 03:00:55;;;;;;;8.87;4.00;;;9.10;99.90;;;;;;5075520;28;20176;-59
2023/05/17 03:03:21;;;;;;;9.40;3.37;;;8.80;99.90;;;;;;5085672;28;20559;-59
2023/05/17 03:05:47;;;;;;;10.10;2.83;;;8.90;99.90;;;;;;5071918;28;20637;-59
2023/05/17 03:08:12;;;;;;;7.53;3.23;;;8.90;99.90;;;;;;5075297;28;20184;-59
2023/05/17 03:10:38;;;;;;;8.33;3.43;;;8.80;99.90;;;;;;5090173;28;20663;-59
2023/05/17 03:13:03;;;;;;;15.80;4.27;;;8.80;99.90;;;;;;5091710;28;20211;-59
2023/05/17 03:15:29;;;;;;;5.83;3.30;;;9.50;99.90;;;;;;5087312;28;20180;-59
2023/05/17 03:17:55;;;;;;;10.40;3.97;;;8.80;99.90;;;;;;5086752;28;20188;-59
2023/05/17 03:20:21;;;;;;;11.73;3.53;;;8.80;99.90;;;;;;5053812;28;20183;-59
2023/05/17 03:22:47;;;;;;;12.10;4.17;;;8.90;99.90;;;;;;5084576;28;20184;-59
2023/05/17 03:25:13;;;;;;;17.03;3.90;;;8.90;99.90;;;;;;5091468;28;20514;-59
2023/05/17 03:27:39;;;;;;;9.00;3.00;;;8.80;99.90;;;;;;5091656;28;20171;-59
2023/05/17 03:30:05;;;;;;;7.40;3.47;;;8.90;99.90;;;;;;5091845;28;20301;-59
2023/05/17 03:32:30;;;;;;;11.73;4.07;;;8.60;99.90;;;;;;5090324;28;20212;-59
2023/05/17 03:34:56;;;;;;;14.98;3.30;;;8.60;99.90;;;;;;5035262;28;1134872;-59
2023/05/17 03:37:22;;;;;;;14.97;3.73;;;8.60;99.90;;;;;;5072794;28;20192;-59
2023/05/17 03:39:47;;;;;;;13.07;3.80;;;8.80;99.90;;;;;;5072292;28;20180;-59
2023/05/17 03:42:13;;;;;;;8.37;3.40;;;8.70;99.90;;;;;;5072370;28;20172;-59
2023/05/17 03:44:39;;;;;;;6.97;3.27;;;8.60;99.90;;;;;;5072213;28;20688;-59
2023/05/17 03:47:05;;;;;;;10.10;3.50;;;8.60;99.90;;;;;;5073652;28;20184;-60
2023/05/17 03:49:31;;;;;;;9.60;3.47;;;8.60;99.90;;;;;;5074318;28;20168;-59
2023/05/17 03:51:57;;;;;;;12.57;3.83;;;;;;;;;;5091822;28;20200;-60
2023/05/17 03:54:23;;;;;;;10.90;3.90;;;;;;;;;;5091802;28;20191;-60
2023/05/17 03:56:49;;;;;;;9.57;3.77;;;8.50;99.90;;;;;;5078900;28;20558;-59
2023/05/17 03:59:15;;;;;;;11.60;3.50;;;8.50;99.90;;;;;;5072193;28;20177;-60
2023/05/17 04:01:42;;;;;;;11.20;3.27;;;8.40;99.90;;;;;;5085896;28;20181;-60
2023/05/17 04:04:08;;;;;;;14.00;3.70;;;8.30;99.90;;;;;;5084094;28;20276;-60
2023/05/17 04:06:34;;;;;;;8.60;3.50;;;8.10;99.90;;;;;;5092227;28;20204;-60
2023/05/17 04:08:59;;;;;;;8.53;3.30;;;8.10;99.90;;;;;;5092036;28;20172;-60
2023/05/17 04:11:26;;;;;;;6.00;3.40;;;8.00;99.90;;;;;;5091992;28;20664;-60
2023/05/17 04:13:53;;;;;;;10.53;3.90;;;8.10;99.90;;;;;;5091823;28;20212;-60
2023/05/17 04:16:19;;;;;;;10.27;3.53;;;8.10;99.90;;;;;;5091964;28;20159;-60
2023/05/17 04:18:45;;;;;;;9.47;3.70;;;8.20;99.90;;;;;;5092097;28;20271;-60
2023/05/17 04:21:11;;;;;;;11.37;3.70;;;8.00;99.90;;;;;;5091718;28;20199;-60
2023/05/17 04:23:37;;;;;;;7.87;3.50;;;8.20;99.90;;;;;;5091873;28;20613;-60
2023/05/17 04:26:04;;;;;;;12.13;4.07;;;8.20;99.90;;;;;;5091898;28;20179;-59
2023/05/17 04:28:31;;;;;;;8.47;3.90;;;;;;;;;;5091574;28;20207;-60
2023/05/17 04:30:57;;;;;;;13.40;3.67;;;8.20;99.90;;;;;;5091853;28;20543;-59
2023/05/17 04:33:23;;;;;;;11.20;3.47;;;8.30;99.90;;;;;;5091757;28;20212;-60
2023/05/17 04:35:49;;;;;;;8.33;3.83;;;8.30;99.90;;;;;;5091640;28;20246;-59
2023/05/17 04:38:15;;;;;;;14.33;4.10;;;8.60;99.90;;;;;;5091598;28;20164;-59
2023/05/17 04:40:41;;;;;;;10.00;3.30;;;8.50;99.90;;;;;;5091559;28;20632;-59
2023/05/17 04:43:08;;;;;;;13.33;3.60;;;8.50;99.90;;;;;;5091570;28;20164;-59
2023/05/17 04:45:33;;;;;;;12.73;3.70;;;8.50;99.90;;;;;;5091592;28;20638;-59
2023/05/17 04:48:00;;;;;;;10.90;3.80;;;8.60;99.90;;;;;;5091469;28;20247;-59
2023/05/17 04:50:25;;;;;;;12.13;3.60;;;8.60;99.90;;;;;;5091490;28;20259;-59
2023/05/17 04:52:51;;;;;;;15.77;3.50;;;8.60;99.90;;;;;;5091310;28;20369;-59
2023/05/17 04:55:17;;;;;;;11.70;4.00;;;8.50;99.90;;;;;;5091284;28;20697;-59
2023/05/17 04:57:43;;;;;;;12.47;3.43;;;8.50;99.90;;;;;;5091285;28;20221;-59
2023/05/17 05:00:09;;;;;;;9.03;4.10;;;8.50;99.90;;;;;;5091289;28;20172;-59
2023/05/17 05:02:35;;;;;;;10.03;3.83;;;8.50;99.90;;;;;;5091138;28;20176;-59
2023/05/17 05:05:01;;;;;;;11.33;4.13;;;8.50;99.90;;;;;;5090986;28;20593;-59
2023/05/17 05:07:27;;;;;;;13.07;3.80;;;8.60;99.90;;;;;;5072922;28;20276;-59
2023/05/17 05:09:52;;;;;;;13.20;3.60;;;8.70;99.90;;;;;;5085480;28;20183;-60
2023/05/17 05:12:18;;;;;;;9.50;3.97;;;8.70;99.90;;;;;;5079943;28;20266;-59
2023/05/17 05:14:44;;;;;;;12.23;4.00;;;8.80;99.90;;;;;;5089070;28;20172;-58
2023/05/17 05:17:09;;;;;;;11.77;4.23;;;9.00;99.90;;;;;;5091130;28;20174;-59
2023/05/17 05:19:35;;;;;;;9.70;4.00;;;;;;;;;;5072630;28;20192;-58
2023/05/17 05:22:01;;;;;;;11.17;3.63;;;;;;;;;;5091115;28;20198;-59
2023/05/17 05:24:27;;;;;;;8.20;4.13;;;9.30;99.90;;;;;;5090902;28;20179;-58
2023/05/17 05:26:53;;;;;;;16.23;4.13;;;;;;;;;;5090800;28;20188;-59
2023/05/17 05:29:19;;;;;;;11.70;3.87;;;9.40;99.90;;;;;;5073826;28;20536;-59
2023/05/17 05:31:45;;;;;;;15.70;4.10;;;9.60;99.90;;;;;;5091104;28;20175;-58
2023/05/17 05:34:10;;;;;;;7.80;3.77;;;9.60;99.90;;;;;;5091081;28;20176;-58
2023/05/17 05:36:36;;;;;;;14.33;4.70;;;9.60;99.90;;;;;;5090677;28;20222;-59
2023/05/17 05:39:02;;;;;;;13.70;4.43;;;9.70;99.90;;;;;;5090805;28;20176;-59
2023/05/17 05:41:27;;;;;;;10.20;4.23;;;10.00;99.90;;;;;;5090682;28;20314;-60
2023/05/17 05:43:53;;;;;;;11.93;4.40;;;9.60;99.90;;;;;;5089455;28;20183;-60
2023/05/17 05:46:18;;;;;;;8.87;4.23;;;9.60;99.90;;;;;;5090788;28;20207;-59
2023/05/17 05:48:44;;;;;;;14.30;4.07;;;9.80;99.90;;;;;;5090694;28;20167;-60
2023/05/17 05:51:10;;;;;;;17.23;4.57;;;9.70;99.90;;;;;;5091044;28;20180;-61
2023/05/17 05:53:35;;;;;;;14.87;4.57;;;9.70;99.90;;;;;;5090625;28;20718;-59
2023/05/17 05:56:02;;;;;;;14.07;4.07;;;9.70;99.90;;;;;;5090994;28;20217;-59
2023/05/17 05:58:28;;;;;;;16.60;4.63;;;9.80;99.90;;;;;;5089303;28;20685;-59
2023/05/17 06:00:54;;;;;;;13.70;4.53;;;9.80;99.90;;;;;;5090430;28;20259;-59
2023/05/17 06:03:20;;;;;;;11.23;4.23;;;9.90;99.90;;;;;;5090441;28;20266;-59
2023/05/17 06:05:45;;;;;;;11.20;4.60;;;10.10;99.90;;;;;;5090465;28;20539;-58
2023/05/17 06:08:11;;;;;;;14.00;3.87;;;10.20;99.90;;;;;;5090636;28;20187;-59
2023/05/17 06:10:37;;;;;;;10.80;4.37;;;10.30;99.90;;;;;;5090308;28;20176;-58
2023/05/17 06:13:02;;;;;;;16.63;4.40;;;10.50;99.90;;;;;;5090405;28;20207;-59
2023/05/17 06:15:29;;;;;;;14.60;4.70;;;10.50;99.90;;;;;;5090589;28;20164;-59
2023/05/17 06:17:55;;;;;;;15.83;5.10;;;10.60;99.90;;;;;;5094048;28;20180;-57
2023/05/17 06:20:20;;;;;;;14.53;4.43;;;10.80;99.90;;;;;;5088760;28;20298;-58
2023/05/17 06:22:46;;;;;;;15.63;4.73;;;10.80;99.90;;;;;;5083912;28;20184;-59
2023/05/17 06:25:12;;;;;;;10.90;4.40;;;10.90;99.90;;;;;;5080486;28;20187;-58
2023/05/17 06:27:37;;;;;;;16.07;4.40;;;11.10;99.90;;;;;;5083739;28;20593;-58
2023/05/17 06:30:03;;;;;;;23.50;4.87;;;11.20;99.90;;;;;;5073983;28;20172;-58
2023/05/17 06:32:30;;;;;;;22.20;5.67;;;11.30;99.90;;;;;;5093790;28;20683;-60
2023/05/17 06:34:55;;;;;;;15.20;5.47;;;11.40;99.90;;;;;;5079191;28;20184;-59
2023/05/17 06:37:21;;;;;;;20.00;4.50;;;11.40;99.90;;;;;;5089343;28;20637;-59
2023/05/17 06:39:49;;;;;;;10.90;4.83;;;11.50;99.90;;;;;;5091896;28;20180;-62
2023/05/17 06:42:15;;;;;;;14.87;4.43;;;11.60;99.90;;;;;;5093060;28;20180;-62
2023/05/17 06:44:40;;;;;;;14.80;5.20;;;11.60;99.90;;;;;;5088040;28;20177;-63
2023/05/17 06:47:06;;;;;;;15.97;5.00;;;11.70;99.90;;;;;;5073511;28;20255;-64
2023/05/17 06:49:32;;;;;;;11.87;4.80;;;11.80;99.90;;;;;;5087483;28;20178;-64
2023/05/17 06:52:02;;;;;;;10.30;5.00;;;11.90;99.90;;;;;;5093263;28;20200;-65
2023/05/17 06:54:29;;;;;;;17.03;4.73;;;12.00;99.90;;;;;;5085502;28;20176;-64
2023/05/17 06:56:58;;;;;;;13.57;4.80;;;12.10;99.90;;;;;;5072856;28;20223;-65
2023/05/17 06:59:23;;;;;;;14.00;4.30;;;12.10;99.90;;;;;;5073100;28;20164;-64
2023/05/17 07:01:49;;;;;;;13.07;4.17;;;12.60;99.90;;;;;;5074557;28;20555;-64
2023/05/17 07:04:15;;;;;;;11.50;4.17;;;12.40;99.90;;;;;;5086249;28;20199;-63
2023/05/17 07:06:40;;;;;;;14.57;4.40;;;12.40;99.90;;;;;;5093027;28;20641;-64
2023/05/17 07:09:06;;;;;;;13.73;3.50;;;12.60;99.90;;;;;;5092747;28;20176;-64
2023/05/17 07:11:32;;;;;;;10.93;3.33;;;12.70;99.90;;;;;;5093182;28;20591;-65
2023/05/17 07:13:58;;;;;;;7.70;3.60;;;12.80;99.90;;;;;;5092386;28;20226;-67
2023/05/17 07:16:23;;;;;;;11.18;3.58;;;12.90;99.90;;;;;;5092965;28;20187;-67
2023/05/17 07:18:49;;;;;;;12.43;3.50;;;13.10;99.90;;;;;;5089437;28;20605;-63
2023/05/17 07:21:15;;;;;;;13.27;3.65;;;13.10;99.90;;;;;;5084276;28;20271;-62
2023/05/17 07:23:41;;;;;;;8.67;2.90;;;13.20;99.90;;;;;;5092751;28;20237;-64
2023/05/17 07:26:06;;;;;;;9.88;3.13;;;13.20;99.90;;;;;;5092281;28;20183;-64
2023/05/17 07:28:32;;;;;;;13.43;3.30;;;13.30;99.90;;;;;;5083527;28;20177;-63
2023/05/17 07:30:57;;;;;;;8.80;3.38;;;13.40;99.90;;;;;;5088752;28;20629;-63
2023/05/17 07:33:23;;;;;;;9.88;3.05;;;13.60;99.90;;;;;;5092553;28;20207;-63
2023/05/17 07:35:48;;;;;;;7.43;3.03;;;13.60;99.90;;;;;;5086847;28;20225;-64
2023/05/17 07:38:14;;;;;;;11.68;3.13;;;13.80;99.90;;;;;;5078186;28;20270;-59
2023/05/17 07:40:40;;;;;;;7.75;3.00;;;14.00;99.90;;;;;;5092473;28;20196;-58
2023/05/17 07:43:05;;;;;;;12.57;3.65;;;14.20;54.90;;;;;;5092448;28;20632;-59
2023/05/17 07:45:31;;;;;;;8.52;3.13;;;14.20;1.00;;;;;;5090039;28;20172;-59
2023/05/17 07:47:56;;;;;;;17.75;3.75;;;14.30;1.00;;;;;;5072477;28;20529;-59
2023/05/17 07:50:22;;;;;;;12.25;3.72;;;14.40;1.00;;;;;;5072003;28;20172;-59
2023/05/17 07:52:48;;;;;;;20.45;3.60;;;14.60;1.00;;;;;;5090829;28;20216;-60
2023/05/17 07:55:14;;;;;;;9.43;3.30;;;14.60;99.90;;;;;;5084330;28;20177;-60
2023/05/17 07:57:39;;;;;;;9.25;2.88;;;14.70;99.90;;;;;;5084269;28;20195;-59
2023/05/17 08:00:07;;;;;;;7.50;2.72;;;14.90;99.90;;;;;;5091855;28;20186;-61
2023/05/17 08:02:33;;;;;;;12.68;3.05;;;14.90;1.00;;;;;;5076492;28;20256;-66
2023/05/17 08:04:59;;;;;;;8.98;3.10;;;15.00;1.00;;;;;;5081560;28;20705;-64
2023/05/17 08:07:24;;;;;;;7.60;2.90;;;14.90;1.00;;;;;;5090489;28;20267;-65
2023/05/17 08:09:50;;;;;;;10.63;3.17;;;15.40;99.90;;;;;;5091919;28;20184;-65
2023/05/17 08:12:16;;;;;;;9.98;3.10;;;15.20;99.90;;;;;;5073489;28;20203;-64
2023/05/17 08:14:41;;;;;;;8.30;2.80;;;15.10;22.60;;;;;;5081369;28;20668;-63
2023/05/17 08:17:07;;;;;;;17.40;3.38;;;15.20;56.90;;;;;;5060219;28;20180;-64
2023/05/17 08:19:32;;;;;;;7.30;2.78;;;15.30;1.00;;;;;;5073654;28;20209;-65
2023/05/17 08:21:58;;;;;;;10.48;2.67;;;15.30;1.00;;;;;;5092029;28;20172;-66
2023/05/17 08:24:24;;;;;;;9.38;2.80;;;15.30;1.00;;;;;;5090863;28;20530;-64
2023/05/17 08:26:49;;;;;;;10.40;3.03;;;15.40;1.00;;;;;;5090562;28;20180;-67
2023/05/17 08:29:15;;;;;;;13.95;2.60;;;15.40;99.90;;;;;;5091608;28;20171;-67
2023/05/17 08:31:41;;;;;;;13.60;2.35;;;15.70;1.00;;;;;;5073262;28;20184;-65
2023/05/17 08:34:07;;;;;;;11.48;2.80;;;15.80;1.00;;;;;;5091612;28;20307;-61
2023/05/17 08:36:33;;;;;;;10.85;2.78;;;16.10;1.00;;;;;;5073648;28;20563;-64
2023/05/17 08:38:58;;;;;;;17.05;2.90;;;16.40;99.90;;;;;;5070974;28;20687;-64
2023/05/17 08:41:24;;;;;;;12.32;2.42;;;16.80;99.90;;;;;;5083197;28;20183;-66
2023/05/17 08:43:51;;;;;;;8.10;2.50;;;16.90;1.00;;;;;;5062158;28;20526;-65
2023/05/17 08:46:22;;;;;;;7.53;2.75;;;17.00;99.90;;;;;;5085111;28;20624;-64
2023/05/17 08:48:52;;;;;;;8.65;2.55;;;17.60;1.00;;;;;;5091077;28;20248;-65
2023/05/17 08:51:19;;;;;;;8.38;2.38;;;17.80;1.00;;;;;;5089044;28;20168;-65
2023/05/17 08:53:46;;;;;;;8.68;2.65;;;18.00;1.00;;;;;;5087327;28;20219;-66
2023/05/17 08:56:14;;;;;;;8.13;2.10;;;18.00;1.00;;;;;;5086771;28;20163;-65
2023/05/17 08:58:43;;;;;;;7.57;2.30;;;18.30;1.00;;;;;;5091163;28;20176;-64
2023/05/17 09:01:09;;;;;;;11.10;2.67;;;18.30;1.00;;;;;;5090668;28;20198;-65
2023/05/17 09:03:38;;;;;;;9.40;2.47;;;18.30;99.90;;;;;;5089696;28;20187;-64
2023/05/17 09:06:05;;;;;;;9.73;2.60;;;18.20;99.90;;;;;;5070880;28;20237;-64
2023/05/17 09:08:31;;;;;;;13.60;2.55;;;18.40;99.90;;;;;;5078067;28;20324;-64
2023/05/17 09:10:58;;;;;;;7.88;2.33;;;18.40;36.40;;;;;;5090636;28;20241;-65
2023/05/17 09:13:24;;;;;;;6.57;2.95;;;18.60;99.90;;;;;;5090775;28;20687;-64
2023/05/17 09:15:50;;;;;;;9.32;2.60;;;18.20;1.00;;;;;;5072821;28;20172;-64
2023/05/17 09:18:16;;;;;;;8.57;2.60;;;18.30;1.00;;;;;;5090809;28;20657;-64
2023/05/17 09:20:48;;;;;;;7.05;3.13;;;18.40;1.00;;;;;;5089134;28;20648;-64
2023/05/17 09:23:14;;;;;;;10.75;3.00;;;18.20;1.00;;;;;;5090576;28;20168;-64
2023/05/17 09:25:47;;;;;;;8.13;2.65;;;18.50;1.00;;;;;;5091012;28;20175;-65
2023/05/17 09:28:12;;;;;;;10.30;2.60;;;18.70;1.00;;;;;;5090930;28;20176;-65
2023/05/17 09:30:38;;;;;;;6.95;2.42;;;19.00;1.00;;;;;;5090070;28;20281;-65
2023/05/17 09:33:09;;;;;;;9.25;2.90;;;18.90;1.00;;;;;;5090586;28;20490;-64
2023/05/17 09:35:36;;;;;;;12.93;3.00;;;18.60;1.00;;;;;;5090620;28;20254;-64
2023/05/17 09:38:10;;;;;;;10.38;2.92;;;19.00;1.00;;;;;;5090735;28;20164;-64
2023/05/17 09:40:47;;;;;;;6.22;2.58;;;19.00;1.00;;;;;;5088910;28;20183;-64
2023/05/17 09:43:13;;;;;;;9.40;2.95;;;19.00;1.00;;;;;;5073901;28;20177;-65
2023/05/17 09:45:39;;;;;;;10.55;3.20;;;19.30;99.90;;;;;;5070340;28;20169;-65
2023/05/17 09:48:15;;;;;;;9.60;3.15;;;18.90;99.90;;;;;;5070368;28;20173;-65
2023/05/17 09:50:45;;;;;;;11.60;3.30;;;18.80;99.90;;;;;;5070942;28;20219;-65
2023/05/17 09:53:31;;;;;;;9.80;3.13;;;18.70;1.00;;;;;;5074361;28;20212;-65
2023/05/17 09:55:58;;;;;;;11.02;3.17;;;18.70;99.90;;;;;;5074458;28;20492;-65
2023/05/17 09:58:30;;;;;;;7.10;3.15;;;18.70;99.90;;;;;;5074335;28;20191;-65
2023/05/17 10:01:00;;;;;;;9.70;3.15;;;19.00;99.90;;;;;;5074190;28;20169;-65
2023/05/17 10:03:34;;;;;;;7.70;2.83;;;19.20;99.90;;;;;;5074286;28;20641;-65
2023/05/17 10:06:08;;;;;;;5.10;2.25;;;19.30;1.00;;;;;;5074001;28;20638;-65
2023/05/17 10:08:37;;;;;;;7.85;2.80;;;19.20;1.00;;;;;;5074042;28;20190;-65
2023/05/17 10:11:08;;;;;;;12.48;2.75;;;19.00;1.00;;;;;;5074064;28;20645;-65
2023/05/17 10:13:41;;;;;;;11.60;3.30;;;19.70;1.00;;;;;;5073891;28;20212;-65
2023/05/17 10:16:06;;;;;;;9.90;2.80;;;19.90;1.00;;;;;;5073754;28;20173;-65
2023/05/17 10:18:32;;;;;;;7.47;3.05;;;20.20;99.90;;;;;;5073837;28;20259;-65
2023/05/17 10:21:00;;;;;;;9.07;3.13;;;20.90;99.90;;;;;;5073928;28;20188;-65
2023/05/17 10:23:28;;;;;;;9.35;3.35;;;20.90;99.90;;;;;;5073850;28;20169;-65
2023/05/17 10:25:54;;;;;;;8.32;2.88;;;20.60;99.90;;;;;;5073744;28;20194;-65
2023/05/17 10:28:20;;;;;;;9.50;3.03;;;20.20;99.90;;;;;;5073654;28;20180;-65
2023/05/17 10:30:47;;;;;;;6.57;3.10;;;19.70;99.90;;;;;;5073694;28;20164;-66
2023/05/17 10:33:16;;;;;;;8.30;3.30;;;19.20;99.90;;;;;;5073573;28;20293;-64
2023/05/17 10:35:43;;;;;;;8.10;2.83;;;19.60;1.00;;;;;;5073437;28;20663;-64
2023/05/17 10:38:10;;;;;;;7.22;2.42;;;19.90;99.90;;;;;;5073568;28;20165;-64
2023/05/17 10:40:37;;;;;;;11.32;2.88;;;20.40;99.90;;;;;;5079196;28;20255;-65
2023/05/17 10:43:05;;;;;;;6.57;2.90;;;20.30;80.70;;;;;;5093714;28;20265;-65
2023/05/17 10:45:31;;;;;;;7.38;3.13;;;21.00;99.90;;;;;;5093566;28;20620;-65
2023/05/17 10:48:04;;;;;;;9.68;3.40;;;20.40;1.00;;;;;;5093681;28;20160;-65
2023/05/17 10:50:30;;;;;;;10.68;3.00;;;20.10;1.00;;;;;;5093508;28;20189;-65
2023/05/17 10:52:58;;;;;;;9.27;2.55;;;19.90;99.90;;;;;;5093278;28;20596;-64
2023/05/17 10:55:35;;;;;;;6.43;2.60;;;21.00;53.70;;;;;;5093520;28;20242;-64
2023/05/17 10:58:10;;;;;;;9.02;2.65;;;21.30;1.00;;;;;;5093430;28;20207;-65
2023/05/17 11:00:40;;;;;;;9.18;2.83;;;22.00;1.00;;;;;;5093376;28;20163;-65
2023/05/17 11:03:29;;;;;;;8.88;3.00;;;21.50;1.00;;;;;;5093179;28;20198;-65
2023/05/17 11:06:10;;;;;;;9.35;2.58;;;21.40;1.00;;;;;;5093372;28;20168;-65
2023/05/17 11:08:41;;;;;;;12.07;2.95;;;21.80;1.00;;;;;;5093171;28;20168;-64
2023/05/17 11:11:12;;;;;;;7.20;2.88;;;21.50;1.00;;;;;;5093167;28;20164;-65
2023/05/17 11:13:53;;;;;;;8.52;3.05;;;22.10;1.00;;;;;;5093136;28;20237;-65
2023/05/17 11:16:26;;;;;;;12.20;2.88;;;22.40;1.00;;;;;;5093074;28;20175;-64
2023/05/17 11:18:54;;;;;;;5.82;2.50;;;23.20;1.00;;;;;;5092989;28;20191;-65
2023/05/17 11:21:21;;;;;;;5.15;2.50;;;23.40;1.00;;;;;;5092955;28;20160;-64
2023/05/17 11:23:48;;;;;;;7.47;2.60;;;23.00;99.90;;;;;;5092860;28;20164;-65
2023/05/17 11:26:35;;;;;;;4.55;2.35;;;22.90;99.90;;;;;;5092989;28;20172;-65
2023/05/17 11:29:06;;;;;;;7.65;2.28;;;23.50;1.00;;;;;;5092870;28;20184;-64
2023/05/17 11:31:33;;;;;;;7.32;2.75;;;24.30;1.00;;;;;;5092648;28;20215;-65
2023/05/17 11:34:01;;;;;;;5.57;2.55;;;24.50;1.00;;;;;;5092599;28;20211;-63
2023/05/17 11:36:26;;;;;;;4.43;2.28;;;24.40;99.90;;;;;;5092551;28;20273;-65
2023/05/17 11:39:13;;;;;;;4.68;2.28;;;24.00;99.90;;;;;;5092763;28;20172;-65
2023/05/17 11:41:50;;;;;;;6.35;2.42;;;24.10;99.90;;;;;;5092070;28;20172;-65
2023/05/17 11:44:29;;;;;;;4.63;2.35;;;23.00;6.30;;;;;;5088757;28;20190;-64
2023/05/17 11:47:10;;;;;;;5.35;2.90;;;23.10;5.70;;;;;;5092460;28;20592;-65
2023/05/17 11:49:37;;;;;;;5.85;2.75;;;23.90;77.10;;;;;;5091873;28;20182;-66
2023/05/17 11:52:06;;;;;;;4.68;2.70;;;23.90;99.90;;;;;;5088970;28;20168;-65
2023/05/17 11:54:32;;;;;;;4.50;2.15;;;24.30;58.80;;;;;;5090620;28;20254;-66
2023/05/17 11:57:01;;;;;;;6.22;2.63;;;23.60;91.40;;;;;;5091937;28;20172;-65
2023/05/17 11:59:26;;;;;;;8.80;2.45;;;23.60;99.90;;;;;;5092405;28;20203;-65
2023/05/17 12:01:52;;;;;;;6.05;2.70;;;23.70;99.90;;;;;;5092142;28;20621;-65
2023/05/17 12:04:25;;;;;;;4.60;2.70;;;23.90;99.90;;;;;;5091997;28;20168;-65
2023/05/17 12:06:54;;;;;;;7.90;3.05;;;24.40;99.90;;;;;;5092117;28;20160;-65
2023/05/17 12:09:21;;;;;;;5.55;2.75;;;24.90;99.90;;;;;;5091960;28;20212;-65
2023/05/17 12:11:47;;;;;;;7.03;2.50;;;25.50;99.90;;;;;;5091955;28;20171;-65
2023/05/17 12:14:17;;;;;;;4.38;2.30;;;25.20;99.90;;;;;;5091215;28;20208;-64
2023/05/17 12:16:44;;;;;;;4.63;2.50;;;25.40;99.90;;;;;;5091950;28;20659;-65
2023/05/17 12:19:20;;;;;;;6.05;2.88;;;26.00;99.90;;;;;;5091866;28;20187;-64
2023/05/17 12:21:46;;;;;;;4.57;2.50;;;27.30;99.90;;;;;;5092081;28;20202;-64
2023/05/17 12:24:12;;;;;;;6.40;2.45;;;28.20;99.90;;;;;;5091763;28;20203;-64
2023/05/17 12:26:45;;;;;;;4.53;2.42;;;27.70;23.20;;;;;;5091906;28;20172;-65
2023/05/17 12:29:13;;;;;;;4.80;2.58;;;26.40;99.90;;;;;;5091693;28;20179;-66
2023/05/17 12:31:42;;;;;;;4.63;2.63;;;25.20;1.00;;;;;;5091590;28;20596;-66
2023/05/17 12:34:08;;;;;;;7.95;2.78;;;23.90;99.90;;;;;;5091871;28;20199;-66
2023/05/17 12:36:36;;;;;;;8.02;3.15;;;24.10;79.10;;;;;;5091590;28;20549;-63
2023/05/17 12:39:04;;;;;;;5.45;3.20;;;24.80;26.70;;;;;;5091554;28;20179;-65
2023/05/17 12:41:31;;;;;;;8.65;2.95;;;24.80;1.00;;;;;;5075841;28;20204;-65
2023/05/17 12:43:56;;;;;;;5.65;3.00;;;24.70;1.00;;;;;;5091320;28;20170;-65
2023/05/17 12:46:23;;;;;;;6.65;3.10;;;25.00;1.00;;;;;;5089608;28;20605;-66
2023/05/17 12:48:52;;;;;;;7.72;2.92;;;25.70;1.00;;;;;;5091516;28;20168;-64
2023/05/17 12:51:20;;;;;;;5.15;2.60;;;25.00;1.00;;;;;;5083539;28;20172;-64
2023/05/17 12:53:51;;;;;;;4.90;2.90;;;23.80;1.00;;;;;;5078794;28;20215;-64